sensor_id;sensor_type;location;lat;lon;timestamp;P1;durP1;ratioP1;P2;durP2;ratioP2
45077;SDS011;60508;42.622;25.416;2023-03-14T00:02:10;6.68;;;2.83;;
45077;SDS011;60508;42.622;25.416;2023-03-14T00:04:36;7.82;;;3.92;;
45077;SDS011;60508;42.622;25.416;2023-03-14T00:07:02;5.50;;;2.75;;
45077;SDS011;60508;42.622;25.416;2023-03-14T00:09:28;4.40;;;2.63;;
45077;SDS011;60508;42.622;25.416;2023-03-14T00:11:55;5.15;;;3.58;;
45077;SDS011;60508;42.622;25.416;2023-03-14T00:14:23;8.13;;;5.10;;
45077;SDS011;60508;42.622;25.416;2023-03-14T00:16:48;5.55;;;4.65;;
45077;SDS011;60508;42.622;25.416;2023-03-14T00:19:15;6.28;;;5.30;;
45077;SDS011;60508;42.622;25.416;2023-03-14T00:21:41;7.72;;;4.85;;
45077;SDS011;60508;42.622;25.416;2023-03-14T00:24:08;5.00;;;3.85;;
45077;SDS011;60508;42.622;25.416;2023-03-14T00:26:34;6.32;;;3.40;;
45077;SDS011;60508;42.622;25.416;2023-03-14T00:29:00;7.00;;;3.72;;
45077;SDS011;60508;42.622;25.416;2023-03-14T00:31:26;13.13;;;4.25;;
45077;SDS011;60508;42.622;25.416;2023-03-14T00:33:53;7.15;;;3.63;;
45077;SDS011;60508;42.622;25.416;2023-03-14T00:36:19;6.20;;;3.17;;
45077;SDS011;60508;42.622;25.416;2023-03-14T00:38:47;4.95;;;3.15;;
45077;SDS011;60508;42.622;25.416;2023-03-14T00:41:16;5.50;;;2.80;;
45077;SDS011;60508;42.622;25.416;2023-03-14T00:43:44;7.85;;;3.38;;
45077;SDS011;60508;42.622;25.416;2023-03-14T00:46:11;4.35;;;3.63;;
45077;SDS011;60508;42.622;25.416;2023-03-14T00:48:37;5.07;;;3.33;;
45077;SDS011;60508;42.622;25.416;2023-03-14T00:51:04;6.78;;;3.15;;
45077;SDS011;60508;42.622;25.416;2023-03-14T00:53:30;14.43;;;4.18;;
45077;SDS011;60508;42.622;25.416;2023-03-14T00:55:56;5.75;;;4.03;;
45077;SDS011;60508;42.622;25.416;2023-03-14T00:58:23;10.07;;;4.82;;
45077;SDS011;60508;42.622;25.416;2023-03-14T01:00:49;5.60;;;3.38;;
45077;SDS011;60508;42.622;25.416;2023-03-14T01:03:16;4.20;;;3.70;;
45077;SDS011;60508;42.622;25.416;2023-03-14T01:05:42;10.70;;;3.65;;
45077;SDS011;60508;42.622;25.416;2023-03-14T01:08:08;7.18;;;4.45;;
45077;SDS011;60508;42.622;25.416;2023-03-14T01:10:37;7.10;;;4.80;;
45077;SDS011;60508;42.622;25.416;2023-03-14T01:13:05;7.55;;;3.92;;
45077;SDS011;60508;42.622;25.416;2023-03-14T01:15:32;6.78;;;4.72;;
45077;SDS011;60508;42.622;25.416;2023-03-14T01:17:59;12.85;;;5.85;;
45077;SDS011;60508;42.622;25.416;2023-03-14T01:20:24;6.82;;;5.07;;
45077;SDS011;60508;42.622;25.416;2023-03-14T01:22:50;13.65;;;4.55;;
45077;SDS011;60508;42.622;25.416;2023-03-14T01:25:17;9.52;;;3.72;;
45077;SDS011;60508;42.622;25.416;2023-03-14T01:27:44;7.07;;;4.15;;
45077;SDS011;60508;42.622;25.416;2023-03-14T01:30:11;5.50;;;3.22;;
45077;SDS011;60508;42.622;25.416;2023-03-14T01:32:38;7.68;;;4.35;;
45077;SDS011;60508;42.622;25.416;2023-03-14T01:35:04;5.53;;;3.40;;
45077;SDS011;60508;42.622;25.416;2023-03-14T01:37:31;5.55;;;3.90;;
45077;SDS011;60508;42.622;25.416;2023-03-14T01:39:57;5.50;;;4.18;;
45077;SDS011;60508;42.622;25.416;2023-03-14T01:42:24;7.45;;;3.67;;
45077;SDS011;60508;42.622;25.416;2023-03-14T01:44:52;7.05;;;3.42;;
45077;SDS011;60508;42.622;25.416;2023-03-14T01:47:22;5.72;;;3.20;;
45077;SDS011;60508;42.622;25.416;2023-03-14T01:49:53;7.32;;;4.15;;
45077;SDS011;60508;42.622;25.416;2023-03-14T01:52:26;12.40;;;4.75;;
45077;SDS011;60508;42.622;25.416;2023-03-14T01:55:01;7.68;;;4.43;;
45077;SDS011;60508;42.622;25.416;2023-03-14T01:57:41;6.85;;;4.47;;
45077;SDS011;60508;42.622;25.416;2023-03-14T02:00:11;6.95;;;3.95;;
45077;SDS011;60508;42.622;25.416;2023-03-14T02:05:12;8.40;;;5.32;;
45077;SDS011;60508;42.622;25.416;2023-03-14T02:07:52;6.28;;;5.45;;
45077;SDS011;60508;42.622;25.416;2023-03-14T02:10:27;8.38;;;5.57;;
45077;SDS011;60508;42.622;25.416;2023-03-14T02:12:59;9.88;;;5.13;;
45077;SDS011;60508;42.622;25.416;2023-03-14T02:15:49;8.30;;;5.15;;
45077;SDS011;60508;42.622;25.416;2023-03-14T02:18:54;9.05;;;5.57;;
45077;SDS011;60508;42.622;25.416;2023-03-14T02:29:30;10.25;;;6.30;;
45077;SDS011;60508;42.622;25.416;2023-03-14T02:32:02;9.07;;;5.75;;
45077;SDS011;60508;42.622;25.416;2023-03-14T02:34:28;8.02;;;5.53;;
45077;SDS011;60508;42.622;25.416;2023-03-14T02:36:57;13.02;;;7.45;;
45077;SDS011;60508;42.622;25.416;2023-03-14T02:39:27;10.00;;;5.95;;
45077;SDS011;60508;42.622;25.416;2023-03-14T02:42:00;10.45;;;5.75;;
45077;SDS011;60508;42.622;25.416;2023-03-14T02:44:27;8.25;;;5.80;;
45077;SDS011;60508;42.622;25.416;2023-03-14T02:46:53;11.73;;;6.80;;
45077;SDS011;60508;42.622;25.416;2023-03-14T02:49:19;8.30;;;5.60;;
45077;SDS011;60508;42.622;25.416;2023-03-14T02:51:46;11.27;;;6.13;;
45077;SDS011;60508;42.622;25.416;2023-03-14T02:54:13;13.80;;;5.28;;
45077;SDS011;60508;42.622;25.416;2023-03-14T02:56:41;5.60;;;4.83;;
45077;SDS011;60508;42.622;25.416;2023-03-14T02:59:11;11.75;;;5.55;;
45077;SDS011;60508;42.622;25.416;2023-03-14T03:02:03;11.57;;;5.25;;
45077;SDS011;60508;42.622;25.416;2023-03-14T03:04:31;10.70;;;6.50;;
45077;SDS011;60508;42.622;25.416;2023-03-14T03:06:57;11.52;;;6.80;;
45077;SDS011;60508;42.622;25.416;2023-03-14T03:09:23;9.30;;;6.72;;
45077;SDS011;60508;42.622;25.416;2023-03-14T03:11:51;12.18;;;6.50;;
45077;SDS011;60508;42.622;25.416;2023-03-14T03:14:21;23.55;;;7.38;;
45077;SDS011;60508;42.622;25.416;2023-03-14T03:16:48;15.88;;;6.53;;
45077;SDS011;60508;42.622;25.416;2023-03-14T03:19:14;8.95;;;5.82;;
45077;SDS011;60508;42.622;25.416;2023-03-14T03:21:41;12.05;;;6.45;;
45077;SDS011;60508;42.622;25.416;2023-03-14T03:24:07;5.93;;;4.95;;
45077;SDS011;60508;42.622;25.416;2023-03-14T03:26:34;7.68;;;5.72;;
45077;SDS011;60508;42.622;25.416;2023-03-14T03:29:03;8.80;;;5.90;;
45077;SDS011;60508;42.622;25.416;2023-03-14T03:31:30;8.05;;;5.50;;
45077;SDS011;60508;42.622;25.416;2023-03-14T03:33:56;10.05;;;5.85;;
45077;SDS011;60508;42.622;25.416;2023-03-14T03:36:24;5.18;;;4.47;;
45077;SDS011;60508;42.622;25.416;2023-03-14T03:38:51;9.07;;;4.53;;
45077;SDS011;60508;42.622;25.416;2023-03-14T03:41:17;8.27;;;3.63;;
45077;SDS011;60508;42.622;25.416;2023-03-14T03:43:43;6.47;;;3.90;;
45077;SDS011;60508;42.622;25.416;2023-03-14T03:46:12;10.57;;;4.45;;
45077;SDS011;60508;42.622;25.416;2023-03-14T03:48:38;4.88;;;4.18;;
45077;SDS011;60508;42.622;25.416;2023-03-14T03:51:05;4.47;;;3.33;;
45077;SDS011;60508;42.622;25.416;2023-03-14T03:53:32;3.95;;;3.00;;
45077;SDS011;60508;42.622;25.416;2023-03-14T03:55:59;3.08;;;2.78;;
45077;SDS011;60508;42.622;25.416;2023-03-14T03:58:26;4.22;;;3.03;;
45077;SDS011;60508;42.622;25.416;2023-03-14T04:00:52;3.10;;;2.78;;
45077;SDS011;60508;42.622;25.416;2023-03-14T04:03:19;3.03;;;2.35;;
45077;SDS011;60508;42.622;25.416;2023-03-14T04:05:45;2.58;;;2.13;;
45077;SDS011;60508;42.622;25.416;2023-03-14T04:08:12;5.53;;;2.50;;
45077;SDS011;60508;42.622;25.416;2023-03-14T04:10:39;7.53;;;4.00;;
45077;SDS011;60508;42.622;25.416;2023-03-14T04:13:11;7.82;;;3.67;;
45077;SDS011;60508;42.622;25.416;2023-03-14T04:15:40;10.32;;;4.03;;
45077;SDS011;60508;42.622;25.416;2023-03-14T04:18:17;6.70;;;4.88;;
45077;SDS011;60508;42.622;25.416;2023-03-14T04:20:43;8.75;;;4.40;;
45077;SDS011;60508;42.622;25.416;2023-03-14T04:23:11;10.98;;;4.97;;
45077;SDS011;60508;42.622;25.416;2023-03-14T04:25:37;4.78;;;3.75;;
45077;SDS011;60508;42.622;25.416;2023-03-14T04:28:04;7.47;;;3.63;;
45077;SDS011;60508;42.622;25.416;2023-03-14T04:30:31;4.88;;;3.33;;
45077;SDS011;60508;42.622;25.416;2023-03-14T04:33:06;8.35;;;5.68;;
45077;SDS011;60508;42.622;25.416;2023-03-14T04:35:36;6.40;;;4.68;;
45077;SDS011;60508;42.622;25.416;2023-03-14T04:38:08;8.60;;;5.22;;
45077;SDS011;60508;42.622;25.416;2023-03-14T04:40:40;8.40;;;5.50;;
45077;SDS011;60508;42.622;25.416;2023-03-14T04:43:07;6.55;;;5.45;;
45077;SDS011;60508;42.622;25.416;2023-03-14T04:45:33;5.82;;;4.55;;
45077;SDS011;60508;42.622;25.416;2023-03-14T04:48:02;5.18;;;4.25;;
45077;SDS011;60508;42.622;25.416;2023-03-14T04:50:29;5.05;;;4.15;;
45077;SDS011;60508;42.622;25.416;2023-03-14T04:52:56;9.57;;;5.93;;
45077;SDS011;60508;42.622;25.416;2023-03-14T04:55:22;5.88;;;4.18;;
45077;SDS011;60508;42.622;25.416;2023-03-14T04:57:49;6.18;;;4.85;;
45077;SDS011;60508;42.622;25.416;2023-03-14T05:00:15;4.70;;;4.10;;
45077;SDS011;60508;42.622;25.416;2023-03-14T05:03:06;4.20;;;2.88;;
45077;SDS011;60508;42.622;25.416;2023-03-14T05:05:55;4.85;;;3.20;;
45077;SDS011;60508;42.622;25.416;2023-03-14T05:08:58;4.65;;;3.15;;
45077;SDS011;60508;42.622;25.416;2023-03-14T05:11:34;4.70;;;3.30;;
45077;SDS011;60508;42.622;25.416;2023-03-14T05:14:11;8.40;;;5.53;;
45077;SDS011;60508;42.622;25.416;2023-03-14T05:16:56;7.90;;;5.70;;
45077;SDS011;60508;42.622;25.416;2023-03-14T05:19:43;6.50;;;3.47;;
45077;SDS011;60508;42.622;25.416;2023-03-14T05:22:11;5.60;;;3.08;;
45077;SDS011;60508;42.622;25.416;2023-03-14T05:24:47;6.63;;;4.65;;
45077;SDS011;60508;42.622;25.416;2023-03-14T05:27:31;5.95;;;3.75;;
45077;SDS011;60508;42.622;25.416;2023-03-14T05:30:10;4.55;;;3.15;;
45077;SDS011;60508;42.622;25.416;2023-03-14T05:32:44;5.13;;;3.45;;
45077;SDS011;60508;42.622;25.416;2023-03-14T05:35:29;45.33;;;25.55;;
45077;SDS011;60508;42.622;25.416;2023-03-14T05:38:17;18.65;;;11.57;;
45077;SDS011;60508;42.622;25.416;2023-03-14T05:40:57;5.53;;;4.07;;
45077;SDS011;60508;42.622;25.416;2023-03-14T05:43:52;6.55;;;4.07;;
45077;SDS011;60508;42.622;25.416;2023-03-14T05:46:35;13.80;;;6.15;;
45077;SDS011;60508;42.622;25.416;2023-03-14T05:49:19;9.95;;;5.85;;
45077;SDS011;60508;42.622;25.416;2023-03-14T05:51:56;11.38;;;5.78;;
45077;SDS011;60508;42.622;25.416;2023-03-14T05:54:42;15.15;;;7.93;;
45077;SDS011;60508;42.622;25.416;2023-03-14T05:57:17;15.48;;;8.73;;
45077;SDS011;60508;42.622;25.416;2023-03-14T06:00:10;19.95;;;7.18;;
45077;SDS011;60508;42.622;25.416;2023-03-14T06:02:46;17.73;;;7.28;;
45077;SDS011;60508;42.622;25.416;2023-03-14T06:05:21;16.30;;;9.15;;
45077;SDS011;60508;42.622;25.416;2023-03-14T06:07:50;11.93;;;7.00;;
45077;SDS011;60508;42.622;25.416;2023-03-14T06:10:16;15.10;;;8.05;;
45077;SDS011;60508;42.622;25.416;2023-03-14T06:12:42;18.55;;;7.47;;
45077;SDS011;60508;42.622;25.416;2023-03-14T06:15:08;17.02;;;10.13;;
45077;SDS011;60508;42.622;25.416;2023-03-14T06:17:35;15.63;;;7.57;;
45077;SDS011;60508;42.622;25.416;2023-03-14T06:20:06;26.00;;;11.90;;
45077;SDS011;60508;42.622;25.416;2023-03-14T06:22:33;22.90;;;12.38;;
45077;SDS011;60508;42.622;25.416;2023-03-14T06:24:59;15.48;;;9.35;;
45077;SDS011;60508;42.622;25.416;2023-03-14T06:27:25;18.98;;;9.15;;
45077;SDS011;60508;42.622;25.416;2023-03-14T06:32:20;9.05;;;5.60;;
45077;SDS011;60508;42.622;25.416;2023-03-14T06:37:15;17.63;;;7.50;;
45077;SDS011;60508;42.622;25.416;2023-03-14T06:39:43;5.43;;;4.32;;
45077;SDS011;60508;42.622;25.416;2023-03-14T06:42:18;12.50;;;5.25;;
45077;SDS011;60508;42.622;25.416;2023-03-14T06:44:45;8.80;;;3.95;;
45077;SDS011;60508;42.622;25.416;2023-03-14T06:47:12;4.35;;;3.45;;
45077;SDS011;60508;42.622;25.416;2023-03-14T06:49:41;8.52;;;3.47;;
45077;SDS011;60508;42.622;25.416;2023-03-14T06:52:07;5.50;;;3.97;;
45077;SDS011;60508;42.622;25.416;2023-03-14T06:54:34;3.80;;;3.20;;
45077;SDS011;60508;42.622;25.416;2023-03-14T06:57:00;11.00;;;3.83;;
45077;SDS011;60508;42.622;25.416;2023-03-14T06:59:26;6.55;;;3.50;;
45077;SDS011;60508;42.622;25.416;2023-03-14T07:01:52;5.63;;;2.90;;
45077;SDS011;60508;42.622;25.416;2023-03-14T07:04:18;6.88;;;2.72;;
45077;SDS011;60508;42.622;25.416;2023-03-14T07:06:47;9.50;;;3.40;;
45077;SDS011;60508;42.622;25.416;2023-03-14T07:09:14;4.70;;;3.67;;
45077;SDS011;60508;42.622;25.416;2023-03-14T07:11:49;10.60;;;3.88;;
45077;SDS011;60508;42.622;25.416;2023-03-14T07:14:16;5.00;;;4.13;;
45077;SDS011;60508;42.622;25.416;2023-03-14T07:16:43;7.00;;;3.85;;
45077;SDS011;60508;42.622;25.416;2023-03-14T07:19:11;8.07;;;3.53;;
45077;SDS011;60508;42.622;25.416;2023-03-14T07:21:37;5.80;;;3.90;;
45077;SDS011;60508;42.622;25.416;2023-03-14T07:24:07;8.65;;;4.72;;
45077;SDS011;60508;42.622;25.416;2023-03-14T07:26:33;7.90;;;5.70;;
45077;SDS011;60508;42.622;25.416;2023-03-14T07:29:00;10.05;;;5.55;;
45077;SDS011;60508;42.622;25.416;2023-03-14T07:31:29;9.07;;;5.13;;
45077;SDS011;60508;42.622;25.416;2023-03-14T07:33:55;7.97;;;4.32;;
45077;SDS011;60508;42.622;25.416;2023-03-14T07:36:23;5.72;;;3.55;;
45077;SDS011;60508;42.622;25.416;2023-03-14T07:38:49;7.47;;;2.90;;
45077;SDS011;60508;42.622;25.416;2023-03-14T07:41:16;3.03;;;2.72;;
45077;SDS011;60508;42.622;25.416;2023-03-14T07:43:58;4.60;;;3.00;;
45077;SDS011;60508;42.622;25.416;2023-03-14T07:46:24;4.50;;;2.85;;
45077;SDS011;60508;42.622;25.416;2023-03-14T07:48:50;3.78;;;3.00;;
45077;SDS011;60508;42.622;25.416;2023-03-14T07:51:17;3.33;;;2.63;;
45077;SDS011;60508;42.622;25.416;2023-03-14T07:53:43;3.50;;;2.65;;
45077;SDS011;60508;42.622;25.416;2023-03-14T07:56:10;2.90;;;2.63;;
45077;SDS011;60508;42.622;25.416;2023-03-14T07:58:35;4.93;;;2.88;;
45077;SDS011;60508;42.622;25.416;2023-03-14T08:01:02;4.32;;;3.08;;
45077;SDS011;60508;42.622;25.416;2023-03-14T08:03:29;5.28;;;4.15;;
45077;SDS011;60508;42.622;25.416;2023-03-14T08:05:55;5.60;;;3.20;;
45077;SDS011;60508;42.622;25.416;2023-03-14T08:08:20;7.43;;;2.88;;
45077;SDS011;60508;42.622;25.416;2023-03-14T08:10:47;5.70;;;2.60;;
45077;SDS011;60508;42.622;25.416;2023-03-14T08:13:13;4.90;;;2.78;;
45077;SDS011;60508;42.622;25.416;2023-03-14T08:15:39;4.40;;;3.13;;
45077;SDS011;60508;42.622;25.416;2023-03-14T08:18:05;5.40;;;2.35;;
45077;SDS011;60508;42.622;25.416;2023-03-14T08:20:32;5.35;;;2.30;;
45077;SDS011;60508;42.622;25.416;2023-03-14T08:23:00;4.72;;;2.55;;
45077;SDS011;60508;42.622;25.416;2023-03-14T08:25:27;3.47;;;1.90;;
45077;SDS011;60508;42.622;25.416;2023-03-14T08:27:53;2.63;;;1.88;;
45077;SDS011;60508;42.622;25.416;2023-03-14T08:30:21;4.95;;;2.38;;
45077;SDS011;60508;42.622;25.416;2023-03-14T08:32:47;1.70;;;1.38;;
45077;SDS011;60508;42.622;25.416;2023-03-14T08:35:14;6.68;;;1.00;;
45077;SDS011;60508;42.622;25.416;2023-03-14T08:37:40;4.75;;;1.73;;
45077;SDS011;60508;42.622;25.416;2023-03-14T08:40:07;2.30;;;1.48;;
45077;SDS011;60508;42.622;25.416;2023-03-14T08:42:36;4.77;;;1.30;;
45077;SDS011;60508;42.622;25.416;2023-03-14T08:45:02;2.35;;;1.73;;
45077;SDS011;60508;42.622;25.416;2023-03-14T08:47:29;2.72;;;1.65;;
45077;SDS011;60508;42.622;25.416;2023-03-14T08:49:56;1.95;;;1.02;;
45077;SDS011;60508;42.622;25.416;2023-03-14T08:52:22;2.08;;;1.23;;
45077;SDS011;60508;42.622;25.416;2023-03-14T08:54:48;3.10;;;1.17;;
45077;SDS011;60508;42.622;25.416;2023-03-14T08:57:14;3.25;;;1.52;;
45077;SDS011;60508;42.622;25.416;2023-03-14T08:59:41;1.98;;;1.25;;
45077;SDS011;60508;42.622;25.416;2023-03-14T09:02:10;1.02;;;0.93;;
45077;SDS011;60508;42.622;25.416;2023-03-14T09:07:03;1.95;;;1.75;;
45077;SDS011;60508;42.622;25.416;2023-03-14T09:09:30;3.30;;;1.48;;
45077;SDS011;60508;42.622;25.416;2023-03-14T09:11:56;2.80;;;1.80;;
45077;SDS011;60508;42.622;25.416;2023-03-14T09:14:23;6.38;;;2.10;;
45077;SDS011;60508;42.622;25.416;2023-03-14T09:16:49;2.85;;;2.05;;
45077;SDS011;60508;42.622;25.416;2023-03-14T09:19:16;2.17;;;1.40;;
45077;SDS011;60508;42.622;25.416;2023-03-14T09:21:42;5.10;;;1.48;;
45077;SDS011;60508;42.622;25.416;2023-03-14T09:24:08;6.47;;;1.48;;
45077;SDS011;60508;42.622;25.416;2023-03-14T09:26:35;4.03;;;1.80;;
45077;SDS011;60508;42.622;25.416;2023-03-14T09:29:01;5.82;;;1.90;;
45077;SDS011;60508;42.622;25.416;2023-03-14T09:31:27;2.75;;;1.42;;
45077;SDS011;60508;42.622;25.416;2023-03-14T09:33:54;2.10;;;1.63;;
45077;SDS011;60508;42.622;25.416;2023-03-14T09:36:19;9.05;;;1.77;;
45077;SDS011;60508;42.622;25.416;2023-03-14T09:38:46;4.75;;;1.92;;
45077;SDS011;60508;42.622;25.416;2023-03-14T09:41:21;6.20;;;1.85;;
45077;SDS011;60508;42.622;25.416;2023-03-14T09:43:53;2.65;;;1.83;;
45077;SDS011;60508;42.622;25.416;2023-03-14T09:46:29;5.22;;;1.40;;
45077;SDS011;60508;42.622;25.416;2023-03-14T09:48:56;5.30;;;2.13;;
45077;SDS011;60508;42.622;25.416;2023-03-14T09:51:22;3.33;;;1.60;;
45077;SDS011;60508;42.622;25.416;2023-03-14T09:53:49;3.97;;;1.50;;
45077;SDS011;60508;42.622;25.416;2023-03-14T09:56:25;6.53;;;1.42;;
45077;SDS011;60508;42.622;25.416;2023-03-14T09:58:55;7.10;;;2.20;;
45077;SDS011;60508;42.622;25.416;2023-03-14T10:01:33;1.63;;;1.13;;
45077;SDS011;60508;42.622;25.416;2023-03-14T10:04:00;3.95;;;1.77;;
45077;SDS011;60508;42.622;25.416;2023-03-14T10:06:30;1.33;;;1.23;;
45077;SDS011;60508;42.622;25.416;2023-03-14T10:08:57;2.75;;;1.52;;
45077;SDS011;60508;42.622;25.416;2023-03-14T10:11:24;2.97;;;1.27;;
45077;SDS011;60508;42.622;25.416;2023-03-14T10:16:42;1.50;;;1.40;;
45077;SDS011;60508;42.622;25.416;2023-03-14T10:19:11;2.95;;;1.70;;
45077;SDS011;60508;42.622;25.416;2023-03-14T10:21:50;5.93;;;1.63;;
45077;SDS011;60508;42.622;25.416;2023-03-14T10:24:19;5.55;;;1.60;;
45077;SDS011;60508;42.622;25.416;2023-03-14T10:27:38;2.22;;;1.23;;
45077;SDS011;60508;42.622;25.416;2023-03-14T10:29:53;1.90;;;1.77;;
45077;SDS011;60508;42.622;25.416;2023-03-14T10:32:33;4.00;;;1.33;;
45077;SDS011;60508;42.622;25.416;2023-03-14T10:37:58;1.57;;;1.30;;
45077;SDS011;60508;42.622;25.416;2023-03-14T10:40:39;1.33;;;1.23;;
45077;SDS011;60508;42.622;25.416;2023-03-14T10:43:07;3.63;;;1.52;;
45077;SDS011;60508;42.622;25.416;2023-03-14T10:45:41;0.88;;;0.80;;
45077;SDS011;60508;42.622;25.416;2023-03-14T10:48:19;1.92;;;1.20;;
45077;SDS011;60508;42.622;25.416;2023-03-14T10:50:49;1.17;;;1.02;;
45077;SDS011;60508;42.622;25.416;2023-03-14T10:53:16;1.55;;;0.90;;
45077;SDS011;60508;42.622;25.416;2023-03-14T10:55:44;4.88;;;0.65;;
45077;SDS011;60508;42.622;25.416;2023-03-14T10:58:21;1.00;;;0.90;;
45077;SDS011;60508;42.622;25.416;2023-03-14T11:01:05;3.90;;;0.80;;
45077;SDS011;60508;42.622;25.416;2023-03-14T11:03:43;1.00;;;0.60;;
45077;SDS011;60508;42.622;25.416;2023-03-14T11:11:31;2.65;;;0.80;;
45077;SDS011;60508;42.622;25.416;2023-03-14T11:28:37;6.82;;;0.80;;
45077;SDS011;60508;42.622;25.416;2023-03-14T11:33:35;3.72;;;0.70;;
45077;SDS011;60508;42.622;25.416;2023-03-14T11:36:07;4.68;;;0.73;;
45077;SDS011;60508;42.622;25.416;2023-03-14T11:38:38;2.00;;;0.93;;
45077;SDS011;60508;42.622;25.416;2023-03-14T11:41:13;1.25;;;0.63;;
45077;SDS011;60508;42.622;25.416;2023-03-14T11:43:44;1.55;;;0.55;;
45077;SDS011;60508;42.622;25.416;2023-03-14T11:46:15;2.42;;;0.80;;
45077;SDS011;60508;42.622;25.416;2023-03-14T11:53:58;1.10;;;0.90;;
45077;SDS011;60508;42.622;25.416;2023-03-14T12:02:12;2.40;;;2.00;;
45077;SDS011;60508;42.622;25.416;2023-03-14T12:07:19;9.13;;;0.70;;
45077;SDS011;60508;42.622;25.416;2023-03-14T12:09:49;1.08;;;0.70;;
45077;SDS011;60508;42.622;25.416;2023-03-14T12:12:19;1.65;;;0.93;;
45077;SDS011;60508;42.622;25.416;2023-03-14T12:14:54;3.30;;;1.10;;
45077;SDS011;60508;42.622;25.416;2023-03-14T12:17:40;2.55;;;1.00;;
45077;SDS011;60508;42.622;25.416;2023-03-14T12:25:24;3.00;;;1.55;;
45077;SDS011;60508;42.622;25.416;2023-03-14T12:33:38;3.25;;;0.93;;
45077;SDS011;60508;42.622;25.416;2023-03-14T12:35:52;2.85;;;1.80;;
45077;SDS011;60508;42.622;25.416;2023-03-14T12:43:48;3.20;;;0.90;;
45077;SDS011;60508;42.622;25.416;2023-03-14T12:48:49;1.90;;;1.30;;
45077;SDS011;60508;42.622;25.416;2023-03-14T12:51:20;1.75;;;1.10;;
45077;SDS011;60508;42.622;25.416;2023-03-14T12:54:00;1.35;;;0.90;;
45077;SDS011;60508;42.622;25.416;2023-03-14T12:56:43;3.65;;;1.40;;
45077;SDS011;60508;42.622;25.416;2023-03-14T12:59:23;3.92;;;1.20;;
45077;SDS011;60508;42.622;25.416;2023-03-14T13:04:37;2.72;;;1.15;;
45077;SDS011;60508;42.622;25.416;2023-03-14T13:07:12;4.30;;;1.17;;
45077;SDS011;60508;42.622;25.416;2023-03-14T13:15:42;5.05;;;1.05;;
45077;SDS011;60508;42.622;25.416;2023-03-14T13:18:14;1.88;;;1.05;;
45077;SDS011;60508;42.622;25.416;2023-03-14T13:20:50;1.17;;;0.80;;
45077;SDS011;60508;42.622;25.416;2023-03-14T13:23:21;6.13;;;0.98;;
45077;SDS011;60508;42.622;25.416;2023-03-14T13:25:50;1.85;;;0.70;;
45077;SDS011;60508;42.622;25.416;2023-03-14T13:28:17;3.22;;;1.10;;
45077;SDS011;60508;42.622;25.416;2023-03-14T13:30:44;2.78;;;0.90;;
45077;SDS011;60508;42.622;25.416;2023-03-14T13:33:19;2.22;;;0.90;;
45077;SDS011;60508;42.622;25.416;2023-03-14T13:35:48;2.75;;;0.90;;
45077;SDS011;60508;42.622;25.416;2023-03-14T13:38:24;2.92;;;0.68;;
45077;SDS011;60508;42.622;25.416;2023-03-14T13:40:53;2.25;;;0.80;;
45077;SDS011;60508;42.622;25.416;2023-03-14T13:43:34;3.90;;;0.90;;
45077;SDS011;60508;42.622;25.416;2023-03-14T13:46:25;3.80;;;1.20;;
45077;SDS011;60508;42.622;25.416;2023-03-14T13:48:52;1.20;;;1.10;;
45077;SDS011;60508;42.622;25.416;2023-03-14T13:51:21;3.22;;;1.40;;
45077;SDS011;60508;42.622;25.416;2023-03-14T13:53:49;5.63;;;1.92;;
45077;SDS011;60508;42.622;25.416;2023-03-14T13:56:20;1.13;;;1.00;;
45077;SDS011;60508;42.622;25.416;2023-03-14T13:58:48;6.07;;;1.60;;
45077;SDS011;60508;42.622;25.416;2023-03-14T14:01:32;6.40;;;1.00;;
45077;SDS011;60508;42.622;25.416;2023-03-14T14:04:05;0.98;;;0.90;;
45077;SDS011;60508;42.622;25.416;2023-03-14T14:06:46;1.83;;;1.20;;
45077;SDS011;60508;42.622;25.416;2023-03-14T14:09:15;2.83;;;1.42;;
45077;SDS011;60508;42.622;25.416;2023-03-14T14:17:42;3.60;;;1.33;;
45077;SDS011;60508;42.622;25.416;2023-03-14T14:23:03;2.45;;;1.73;;
45077;SDS011;60508;42.622;25.416;2023-03-14T14:25:31;2.28;;;1.10;;
45077;SDS011;60508;42.622;25.416;2023-03-14T14:27:58;4.45;;;2.25;;
45077;SDS011;60508;42.622;25.416;2023-03-14T14:30:26;4.15;;;2.95;;
45077;SDS011;60508;42.622;25.416;2023-03-14T14:33:10;3.28;;;2.53;;
45077;SDS011;60508;42.622;25.416;2023-03-14T14:35:58;3.70;;;1.63;;
45077;SDS011;60508;42.622;25.416;2023-03-14T14:38:26;4.63;;;2.10;;
45077;SDS011;60508;42.622;25.416;2023-03-14T14:40:58;10.60;;;1.42;;
45077;SDS011;60508;42.622;25.416;2023-03-14T14:43:28;10.65;;;2.70;;
45077;SDS011;60508;42.622;25.416;2023-03-14T14:45:57;3.42;;;1.67;;
45077;SDS011;60508;42.622;25.416;2023-03-14T14:48:24;4.88;;;2.22;;
45077;SDS011;60508;42.622;25.416;2023-03-14T14:50:58;2.75;;;2.30;;
45077;SDS011;60508;42.622;25.416;2023-03-14T14:53:28;4.88;;;1.98;;
45077;SDS011;60508;42.622;25.416;2023-03-14T14:56:04;5.55;;;1.70;;
45077;SDS011;60508;42.622;25.416;2023-03-14T14:58:35;6.72;;;2.75;;
45077;SDS011;60508;42.622;25.416;2023-03-14T15:01:07;7.55;;;1.42;;
45077;SDS011;60508;42.622;25.416;2023-03-14T15:03:39;4.93;;;1.25;;
45077;SDS011;60508;42.622;25.416;2023-03-14T15:06:12;2.72;;;1.00;;
45077;SDS011;60508;42.622;25.416;2023-03-14T15:08:40;3.88;;;1.60;;
45077;SDS011;60508;42.622;25.416;2023-03-14T15:11:18;1.48;;;0.73;;
45077;SDS011;60508;42.622;25.416;2023-03-14T15:13:48;4.40;;;2.50;;
45077;SDS011;60508;42.622;25.416;2023-03-14T15:16:18;2.88;;;2.03;;
45077;SDS011;60508;42.622;25.416;2023-03-14T15:18:50;2.05;;;1.25;;
45077;SDS011;60508;42.622;25.416;2023-03-14T15:21:20;7.97;;;1.42;;
45077;SDS011;60508;42.622;25.416;2023-03-14T15:23:47;2.25;;;1.00;;
45077;SDS011;60508;42.622;25.416;2023-03-14T15:26:13;2.40;;;1.00;;
45077;SDS011;60508;42.622;25.416;2023-03-14T15:28:43;6.68;;;1.10;;
45077;SDS011;60508;42.622;25.416;2023-03-14T15:31:12;2.10;;;1.20;;
45077;SDS011;60508;42.622;25.416;2023-03-14T15:33:40;4.70;;;2.03;;
45077;SDS011;60508;42.622;25.416;2023-03-14T15:36:10;4.30;;;1.90;;
45077;SDS011;60508;42.622;25.416;2023-03-14T15:38:51;5.60;;;3.33;;
45077;SDS011;60508;42.622;25.416;2023-03-14T15:41:18;12.55;;;3.45;;
45077;SDS011;60508;42.622;25.416;2023-03-14T15:43:44;8.23;;;2.85;;
45077;SDS011;60508;42.622;25.416;2023-03-14T15:46:10;3.83;;;1.70;;
45077;SDS011;60508;42.622;25.416;2023-03-14T15:48:37;11.13;;;4.10;;
45077;SDS011;60508;42.622;25.416;2023-03-14T15:51:04;7.32;;;1.33;;
45077;SDS011;60508;42.622;25.416;2023-03-14T15:53:31;6.95;;;1.77;;
45077;SDS011;60508;42.622;25.416;2023-03-14T15:55:57;4.95;;;1.33;;
45077;SDS011;60508;42.622;25.416;2023-03-14T15:58:22;3.33;;;1.60;;
45077;SDS011;60508;42.622;25.416;2023-03-14T16:00:49;14.02;;;4.90;;
45077;SDS011;60508;42.622;25.416;2023-03-14T16:03:16;6.85;;;2.47;;
45077;SDS011;60508;42.622;25.416;2023-03-14T16:05:44;4.55;;;2.17;;
45077;SDS011;60508;42.622;25.416;2023-03-14T16:08:10;9.25;;;3.90;;
45077;SDS011;60508;42.622;25.416;2023-03-14T16:10:36;8.43;;;4.13;;
45077;SDS011;60508;42.622;25.416;2023-03-14T16:13:03;3.28;;;2.25;;
45077;SDS011;60508;42.622;25.416;2023-03-14T16:15:30;4.32;;;2.10;;
45077;SDS011;60508;42.622;25.416;2023-03-14T16:17:56;12.45;;;5.50;;
45077;SDS011;60508;42.622;25.416;2023-03-14T16:20:22;12.95;;;2.35;;
45077;SDS011;60508;42.622;25.416;2023-03-14T16:22:48;7.43;;;2.78;;
45077;SDS011;60508;42.622;25.416;2023-03-14T16:25:14;15.18;;;6.18;;
45077;SDS011;60508;42.622;25.416;2023-03-14T16:27:41;15.60;;;8.77;;